sensor_id;sensor_type;location;lat;lon;timestamp;P1;P2;P0
81640;PMS5003;71053;50.722;-1.944;2023-07-20T00:01:37;7;7;
81640;PMS5003;71053;50.722;-1.944;2023-07-20T00:04:02;8;8;
81640;PMS5003;71053;50.722;-1.944;2023-07-20T00:06:27;9;9;
81640;PMS5003;71053;50.722;-1.944;2023-07-20T00:08:53;6;6;
81640;PMS5003;71053;50.722;-1.944;2023-07-20T00:11:18;9;9;
81640;PMS5003;71053;50.722;-1.944;2023-07-20T00:13:43;7;7;
81640;PMS5003;71053;50.722;-1.944;2023-07-20T00:16:08;7;7;
81640;PMS5003;71053;50.722;-1.944;2023-07-20T00:18:33;9;8;
81640;PMS5003;71053;50.722;-1.944;2023-07-20T00:20:59;8;8;
81640;PMS5003;71053;50.722;-1.944;2023-07-20T00:23:24;11;10;
81640;PMS5003;71053;50.722;-1.944;2023-07-20T00:25:49;8;7;
81640;PMS5003;71053;50.722;-1.944;2023-07-20T00:28:14;5;5;
81640;PMS5003;71053;50.722;-1.944;2023-07-20T00:30:39;10;9;
81640;PMS5003;71053;50.722;-1.944;2023-07-20T00:33:06;8;7;
81640;PMS5003;71053;50.722;-1.944;2023-07-20T00:35:30;8;7;
81640;PMS5003;71053;50.722;-1.944;2023-07-20T00:37:55;8;8;
81640;PMS5003;71053;50.722;-1.944;2023-07-20T00:40:20;7;7;
81640;PMS5003;71053;50.722;-1.944;2023-07-20T00:42:46;7;7;
81640;PMS5003;71053;50.722;-1.944;2023-07-20T00:45:11;8;8;
81640;PMS5003;71053;50.722;-1.944;2023-07-20T00:47:36;8;8;
81640;PMS5003;71053;50.722;-1.944;2023-07-20T00:50:02;8;8;
81640;PMS5003;71053;50.722;-1.944;2023-07-20T00:52:27;10;10;
81640;PMS5003;71053;50.722;-1.944;2023-07-20T00:54:55;7;7;
81640;PMS5003;71053;50.722;-1.944;2023-07-20T00:57:18;6;6;
81640;PMS5003;71053;50.722;-1.944;2023-07-20T00:59:43;8;8;
81640;PMS5003;71053;50.722;-1.944;2023-07-20T01:02:09;8;8;
81640;PMS5003;71053;50.722;-1.944;2023-07-20T01:04:34;9;8;
81640;PMS5003;71053;50.722;-1.944;2023-07-20T01:07:01;9;9;
81640;PMS5003;71053;50.722;-1.944;2023-07-20T01:09:26;10;10;
81640;PMS5003;71053;50.722;-1.944;2023-07-20T01:11:52;8;8;
81640;PMS5003;71053;50.722;-1.944;2023-07-20T01:14:15;9;8;
81640;PMS5003;71053;50.722;-1.944;2023-07-20T01:16:41;9;8;
81640;PMS5003;71053;50.722;-1.944;2023-07-20T01:19:06;11;9;
81640;PMS5003;71053;50.722;-1.944;2023-07-20T01:21:34;10;9;
81640;PMS5003;71053;50.722;-1.944;2023-07-20T01:24:08;8;8;
81640;PMS5003;71053;50.722;-1.944;2023-07-20T01:26:28;8;8;
81640;PMS5003;71053;50.722;-1.944;2023-07-20T01:28:54;8;7;
81640;PMS5003;71053;50.722;-1.944;2023-07-20T01:31:16;9;9;
81640;PMS5003;71053;50.722;-1.944;2023-07-20T01:33:39;9;9;
81640;PMS5003;71053;50.722;-1.944;2023-07-20T01:36:04;7;7;
81640;PMS5003;71053;50.722;-1.944;2023-07-20T01:38:29;8;7;
81640;PMS5003;71053;50.722;-1.944;2023-07-20T01:40:54;8;8;
81640;PMS5003;71053;50.722;-1.944;2023-07-20T01:43:20;9;8;
81640;PMS5003;71053;50.722;-1.944;2023-07-20T01:45:45;10;9;
81640;PMS5003;71053;50.722;-1.944;2023-07-20T01:48:10;9;9;
81640;PMS5003;71053;50.722;-1.944;2023-07-20T01:50:35;9;9;
81640;PMS5003;71053;50.722;-1.944;2023-07-20T01:53:01;9;9;
81640;PMS5003;71053;50.722;-1.944;2023-07-20T01:55:26;7;7;
81640;PMS5003;71053;50.722;-1.944;2023-07-20T01:57:52;10;10;
81640;PMS5003;71053;50.722;-1.944;2023-07-20T02:00:17;9;9;
81640;PMS5003;71053;50.722;-1.944;2023-07-20T02:02:42;7;7;
81640;PMS5003;71053;50.722;-1.944;2023-07-20T02:05:07;10;10;
81640;PMS5003;71053;50.722;-1.944;2023-07-20T02:07:32;9;9;
81640;PMS5003;71053;50.722;-1.944;2023-07-20T02:09:58;7;7;
81640;PMS5003;71053;50.722;-1.944;2023-07-20T02:12:23;10;9;
81640;PMS5003;71053;50.722;-1.944;2023-07-20T02:14:48;8;8;
81640;PMS5003;71053;50.722;-1.944;2023-07-20T02:17:13;9;9;
81640;PMS5003;71053;50.722;-1.944;2023-07-20T02:19:40;8;8;
81640;PMS5003;71053;50.722;-1.944;2023-07-20T02:22:04;8;8;
81640;PMS5003;71053;50.722;-1.944;2023-07-20T02:24:29;10;9;
81640;PMS5003;71053;50.722;-1.944;2023-07-20T02:26:55;8;8;
81640;PMS5003;71053;50.722;-1.944;2023-07-20T02:29:20;9;9;
81640;PMS5003;71053;50.722;-1.944;2023-07-20T02:31:45;10;9;
81640;PMS5003;71053;50.722;-1.944;2023-07-20T02:34:10;7;7;
81640;PMS5003;71053;50.722;-1.944;2023-07-20T02:36:36;10;10;
81640;PMS5003;71053;50.722;-1.944;2023-07-20T02:39:01;9;9;
81640;PMS5003;71053;50.722;-1.944;2023-07-20T02:41:26;10;10;
81640;PMS5003;71053;50.722;-1.944;2023-07-20T02:43:52;9;9;
81640;PMS5003;71053;50.722;-1.944;2023-07-20T02:46:17;8;8;
81640;PMS5003;71053;50.722;-1.944;2023-07-20T02:48:42;8;8;
81640;PMS5003;71053;50.722;-1.944;2023-07-20T02:51:07;8;8;
81640;PMS5003;71053;50.722;-1.944;2023-07-20T02:53:33;10;9;
81640;PMS5003;71053;50.722;-1.944;2023-07-20T02:55:58;10;9;
81640;PMS5003;71053;50.722;-1.944;2023-07-20T02:58:23;10;10;
81640;PMS5003;71053;50.722;-1.944;2023-07-20T03:00:48;10;9;
81640;PMS5003;71053;50.722;-1.944;2023-07-20T03:03:14;9;9;
81640;PMS5003;71053;50.722;-1.944;2023-07-20T03:05:40;6;6;
81640;PMS5003;71053;50.722;-1.944;2023-07-20T03:08:04;12;11;
81640;PMS5003;71053;50.722;-1.944;2023-07-20T03:10:29;10;10;
81640;PMS5003;71053;50.722;-1.944;2023-07-20T03:12:55;8;8;
81640;PMS5003;71053;50.722;-1.944;2023-07-20T03:15:20;9;9;
81640;PMS5003;71053;50.722;-1.944;2023-07-20T03:17:45;8;8;
81640;PMS5003;71053;50.722;-1.944;2023-07-20T03:20:11;8;8;
81640;PMS5003;71053;50.722;-1.944;2023-07-20T03:22:36;10;10;
81640;PMS5003;71053;50.722;-1.944;2023-07-20T03:25:01;7;7;
81640;PMS5003;71053;50.722;-1.944;2023-07-20T03:27:27;9;9;
81640;PMS5003;71053;50.722;-1.944;2023-07-20T03:29:52;9;9;
81640;PMS5003;71053;50.722;-1.944;2023-07-20T03:32:17;8;8;
81640;PMS5003;71053;50.722;-1.944;2023-07-20T03:34:42;10;10;
81640;PMS5003;71053;50.722;-1.944;2023-07-20T03:37:08;8;8;
81640;PMS5003;71053;50.722;-1.944;2023-07-20T03:39:33;8;8;
81640;PMS5003;71053;50.722;-1.944;2023-07-20T03:41:58;9;9;
81640;PMS5003;71053;50.722;-1.944;2023-07-20T03:44:24;9;9;
81640;PMS5003;71053;50.722;-1.944;2023-07-20T03:46:49;10;10;
81640;PMS5003;71053;50.722;-1.944;2023-07-20T03:49:14;9;9;
81640;PMS5003;71053;50.722;-1.944;2023-07-20T03:51:40;9;9;
81640;PMS5003;71053;50.722;-1.944;2023-07-20T03:54:05;8;8;
81640;PMS5003;71053;50.722;-1.944;2023-07-20T03:56:31;7;7;
81640;PMS5003;71053;50.722;-1.944;2023-07-20T03:58:56;8;8;
81640;PMS5003;71053;50.722;-1.944;2023-07-20T04:01:21;7;7;
81640;PMS5003;71053;50.722;-1.944;2023-07-20T04:03:46;7;7;
81640;PMS5003;71053;50.722;-1.944;2023-07-20T04:06:12;7;7;
81640;PMS5003;71053;50.722;-1.944;2023-07-20T04:08:37;10;10;
81640;PMS5003;71053;50.722;-1.944;2023-07-20T04:11:02;10;10;
81640;PMS5003;71053;50.722;-1.944;2023-07-20T04:13:28;8;8;
81640;PMS5003;71053;50.722;-1.944;2023-07-20T04:15:53;9;8;
81640;PMS5003;71053;50.722;-1.944;2023-07-20T04:18:18;9;9;
81640;PMS5003;71053;50.722;-1.944;2023-07-20T04:20:44;9;8;
81640;PMS5003;71053;50.722;-1.944;2023-07-20T04:23:09;11;10;
81640;PMS5003;71053;50.722;-1.944;2023-07-20T04:25:34;8;8;
81640;PMS5003;71053;50.722;-1.944;2023-07-20T04:27:59;8;8;
81640;PMS5003;71053;50.722;-1.944;2023-07-20T04:30:24;10;10;
81640;PMS5003;71053;50.722;-1.944;2023-07-20T04:32:50;9;9;
81640;PMS5003;71053;50.722;-1.944;2023-07-20T04:35:17;11;10;
81640;PMS5003;71053;50.722;-1.944;2023-07-20T04:37:41;11;10;
81640;PMS5003;71053;50.722;-1.944;2023-07-20T04:40:07;9;9;
81640;PMS5003;71053;50.722;-1.944;2023-07-20T04:42:32;10;10;
81640;PMS5003;71053;50.722;-1.944;2023-07-20T04:44:57;10;10;
81640;PMS5003;71053;50.722;-1.944;2023-07-20T04:47:23;10;10;
81640;PMS5003;71053;50.722;-1.944;2023-07-20T04:49:48;8;8;
81640;PMS5003;71053;50.722;-1.944;2023-07-20T04:52:13;9;9;
81640;PMS5003;71053;50.722;-1.944;2023-07-20T04:54:39;10;10;
81640;PMS5003;71053;50.722;-1.944;2023-07-20T04:57:08;11;10;
81640;PMS5003;71053;50.722;-1.944;2023-07-20T04:59:29;9;9;
81640;PMS5003;71053;50.722;-1.944;2023-07-20T05:01:55;10;10;
81640;PMS5003;71053;50.722;-1.944;2023-07-20T05:04:20;10;10;
81640;PMS5003;71053;50.722;-1.944;2023-07-20T05:06:46;9;9;
81640;PMS5003;71053;50.722;-1.944;2023-07-20T05:09:11;10;10;
81640;PMS5003;71053;50.722;-1.944;2023-07-20T05:11:36;8;8;
81640;PMS5003;71053;50.722;-1.944;2023-07-20T05:14:02;9;9;
81640;PMS5003;71053;50.722;-1.944;2023-07-20T05:16:27;10;9;
81640;PMS5003;71053;50.722;-1.944;2023-07-20T05:18:52;11;10;
81640;PMS5003;71053;50.722;-1.944;2023-07-20T05:21:18;11;11;
81640;PMS5003;71053;50.722;-1.944;2023-07-20T05:23:43;10;10;
81640;PMS5003;71053;50.722;-1.944;2023-07-20T05:26:09;9;9;
81640;PMS5003;71053;50.722;-1.944;2023-07-20T05:28:34;9;9;
81640;PMS5003;71053;50.722;-1.944;2023-07-20T05:31:02;8;8;
81640;PMS5003;71053;50.722;-1.944;2023-07-20T05:33:25;7;7;
81640;PMS5003;71053;50.722;-1.944;2023-07-20T05:35:51;9;8;
81640;PMS5003;71053;50.722;-1.944;2023-07-20T05:38:16;8;8;
81640;PMS5003;71053;50.722;-1.944;2023-07-20T05:40:42;10;10;
81640;PMS5003;71053;50.722;-1.944;2023-07-20T05:43:07;9;9;
81640;PMS5003;71053;50.722;-1.944;2023-07-20T05:45:32;10;10;
81640;PMS5003;71053;50.722;-1.944;2023-07-20T05:47:57;8;8;
81640;PMS5003;71053;50.722;-1.944;2023-07-20T05:50:23;8;8;
81640;PMS5003;71053;50.722;-1.944;2023-07-20T05:52:48;8;8;
81640;PMS5003;71053;50.722;-1.944;2023-07-20T05:55:13;7;7;
81640;PMS5003;71053;50.722;-1.944;2023-07-20T05:57:38;8;8;
81640;PMS5003;71053;50.722;-1.944;2023-07-20T06:00:04;8;7;
81640;PMS5003;71053;50.722;-1.944;2023-07-20T06:02:29;8;8;
81640;PMS5003;71053;50.722;-1.944;2023-07-20T06:04:54;7;7;
81640;PMS5003;71053;50.722;-1.944;2023-07-20T06:07:19;7;7;
81640;PMS5003;71053;50.722;-1.944;2023-07-20T06:09:45;6;6;
81640;PMS5003;71053;50.722;-1.944;2023-07-20T06:12:10;9;9;
81640;PMS5003;71053;50.722;-1.944;2023-07-20T06:14:35;7;7;
81640;PMS5003;71053;50.722;-1.944;2023-07-20T06:17:00;5;5;
81640;PMS5003;71053;50.722;-1.944;2023-07-20T06:19:26;7;7;
81640;PMS5003;71053;50.722;-1.944;2023-07-20T06:21:52;8;8;
81640;PMS5003;71053;50.722;-1.944;2023-07-20T06:24:17;6;6;
81640;PMS5003;71053;50.722;-1.944;2023-07-20T06:26:42;7;7;
81640;PMS5003;71053;50.722;-1.944;2023-07-20T06:29:08;7;7;
81640;PMS5003;71053;50.722;-1.944;2023-07-20T06:31:32;6;6;
81640;PMS5003;71053;50.722;-1.944;2023-07-20T06:33:58;6;6;
81640;PMS5003;71053;50.722;-1.944;2023-07-20T06:36:23;7;7;
81640;PMS5003;71053;50.722;-1.944;2023-07-20T06:38:48;7;7;
81640;PMS5003;71053;50.722;-1.944;2023-07-20T06:41:13;8;8;
81640;PMS5003;71053;50.722;-1.944;2023-07-20T06:43:39;7;7;
81640;PMS5003;71053;50.722;-1.944;2023-07-20T06:46:04;9;9;
81640;PMS5003;71053;50.722;-1.944;2023-07-20T06:48:29;8;8;
81640;PMS5003;71053;50.722;-1.944;2023-07-20T06:50:54;5;5;
81640;PMS5003;71053;50.722;-1.944;2023-07-20T06:53:20;5;5;
81640;PMS5003;71053;50.722;-1.944;2023-07-20T06:55:45;5;5;
81640;PMS5003;71053;50.722;-1.944;2023-07-20T06:58:10;4;4;
81640;PMS5003;71053;50.722;-1.944;2023-07-20T07:00:35;5;5;
81640;PMS5003;71053;50.722;-1.944;2023-07-20T07:03:00;6;6;
81640;PMS5003;71053;50.722;-1.944;2023-07-20T07:05:26;4;4;
81640;PMS5003;71053;50.722;-1.944;2023-07-20T07:07:51;6;6;
81640;PMS5003;71053;50.722;-1.944;2023-07-20T07:10:16;8;7;
81640;PMS5003;71053;50.722;-1.944;2023-07-20T07:12:42;6;6;
81640;PMS5003;71053;50.722;-1.944;2023-07-20T07:15:07;4;4;
81640;PMS5003;71053;50.722;-1.944;2023-07-20T07:17:32;5;5;
81640;PMS5003;71053;50.722;-1.944;2023-07-20T07:19:58;4;4;
81640;PMS5003;71053;50.722;-1.944;2023-07-20T07:22:23;6;6;
81640;PMS5003;71053;50.722;-1.944;2023-07-20T07:24:48;6;6;
81640;PMS5003;71053;50.722;-1.944;2023-07-20T07:27:13;6;6;
81640;PMS5003;71053;50.722;-1.944;2023-07-20T07:29:38;5;5;
81640;PMS5003;71053;50.722;-1.944;2023-07-20T07:32:04;5;5;
81640;PMS5003;71053;50.722;-1.944;2023-07-20T07:34:29;4;4;
81640;PMS5003;71053;50.722;-1.944;2023-07-20T07:36:54;5;5;
81640;PMS5003;71053;50.722;-1.944;2023-07-20T07:39:19;7;6;
81640;PMS5003;71053;50.722;-1.944;2023-07-20T07:41:44;5;5;
81640;PMS5003;71053;50.722;-1.944;2023-07-20T07:44:09;7;7;
81640;PMS5003;71053;50.722;-1.944;2023-07-20T07:46:34;4;4;
81640;PMS5003;71053;50.722;-1.944;2023-07-20T07:49:00;6;6;
81640;PMS5003;71053;50.722;-1.944;2023-07-20T07:51:25;5;5;
81640;PMS5003;71053;50.722;-1.944;2023-07-20T07:53:50;5;5;
81640;PMS5003;71053;50.722;-1.944;2023-07-20T07:56:15;3;3;
81640;PMS5003;71053;50.722;-1.944;2023-07-20T07:58:40;5;5;
81640;PMS5003;71053;50.722;-1.944;2023-07-20T08:01:06;5;5;
81640;PMS5003;71053;50.722;-1.944;2023-07-20T08:03:31;6;6;
81640;PMS5003;71053;50.722;-1.944;2023-07-20T08:05:56;4;4;
81640;PMS5003;71053;50.722;-1.944;2023-07-20T08:08:21;3;3;
81640;PMS5003;71053;50.722;-1.944;2023-07-20T08:10:46;5;5;
81640;PMS5003;71053;50.722;-1.944;2023-07-20T08:13:11;5;5;
81640;PMS5003;71053;50.722;-1.944;2023-07-20T08:15:36;5;5;
81640;PMS5003;71053;50.722;-1.944;2023-07-20T08:18:02;6;6;
81640;PMS5003;71053;50.722;-1.944;2023-07-20T08:20:27;6;6;
81640;PMS5003;71053;50.722;-1.944;2023-07-20T08:22:52;6;5;
81640;PMS5003;71053;50.722;-1.944;2023-07-20T08:25:17;4;4;
81640;PMS5003;71053;50.722;-1.944;2023-07-20T08:27:42;5;5;
81640;PMS5003;71053;50.722;-1.944;2023-07-20T08:30:08;5;5;
81640;PMS5003;71053;50.722;-1.944;2023-07-20T08:32:33;5;5;
81640;PMS5003;71053;50.722;-1.944;2023-07-20T08:34:58;3;3;
81640;PMS5003;71053;50.722;-1.944;2023-07-20T08:37:23;4;4;
81640;PMS5003;71053;50.722;-1.944;2023-07-20T08:39:48;4;3;
81640;PMS5003;71053;50.722;-1.944;2023-07-20T08:42:13;4;4;
81640;PMS5003;71053;50.722;-1.944;2023-07-20T08:44:38;4;4;
81640;PMS5003;71053;50.722;-1.944;2023-07-20T08:47:04;4;4;
81640;PMS5003;71053;50.722;-1.944;2023-07-20T08:49:29;4;4;
81640;PMS5003;71053;50.722;-1.944;2023-07-20T08:51:54;3;3;
81640;PMS5003;71053;50.722;-1.944;2023-07-20T08:54:19;3;3;
81640;PMS5003;71053;50.722;-1.944;2023-07-20T08:56:45;2;2;
81640;PMS5003;71053;50.722;-1.944;2023-07-20T08:59:09;4;4;
81640;PMS5003;71053;50.722;-1.944;2023-07-20T09:01:34;2;2;
81640;PMS5003;71053;50.722;-1.944;2023-07-20T09:03:59;5;5;
81640;PMS5003;71053;50.722;-1.944;2023-07-20T09:06:24;6;6;
81640;PMS5003;71053;50.722;-1.944;2023-07-20T09:08:50;4;4;
81640;PMS5003;71053;50.722;-1.944;2023-07-20T09:11:15;4;4;
81640;PMS5003;71053;50.722;-1.944;2023-07-20T09:13:40;5;5;
81640;PMS5003;71053;50.722;-1.944;2023-07-20T09:16:05;4;4;
81640;PMS5003;71053;50.722;-1.944;2023-07-20T09:18:31;3;3;
81640;PMS5003;71053;50.722;-1.944;2023-07-20T09:20:57;3;3;
81640;PMS5003;71053;50.722;-1.944;2023-07-20T09:23:21;4;3;
81640;PMS5003;71053;50.722;-1.944;2023-07-20T09:25:46;3;3;
81640;PMS5003;71053;50.722;-1.944;2023-07-20T09:28:11;3;3;
81640;PMS5003;71053;50.722;-1.944;2023-07-20T09:30:36;2;2;
81640;PMS5003;71053;50.722;-1.944;2023-07-20T09:33:01;3;3;
81640;PMS5003;71053;50.722;-1.944;2023-07-20T09:35:26;4;4;
81640;PMS5003;71053;50.722;-1.944;2023-07-20T09:37:53;4;4;
81640;PMS5003;71053;50.722;-1.944;2023-07-20T09:40:16;3;3;
81640;PMS5003;71053;50.722;-1.944;2023-07-20T09:42:41;3;3;
81640;PMS5003;71053;50.722;-1.944;2023-07-20T09:45:07;3;3;
81640;PMS5003;71053;50.722;-1.944;2023-07-20T09:47:32;3;3;
81640;PMS5003;71053;50.722;-1.944;2023-07-20T09:49:58;4;4;
81640;PMS5003;71053;50.722;-1.944;2023-07-20T09:52:22;3;3;
81640;PMS5003;71053;50.722;-1.944;2023-07-20T09:54:47;4;4;
81640;PMS5003;71053;50.722;-1.944;2023-07-20T09:57:12;3;3;
81640;PMS5003;71053;50.722;-1.944;2023-07-20T09:59:37;4;4;
81640;PMS5003;71053;50.722;-1.944;2023-07-20T10:02:04;5;5;
81640;PMS5003;71053;50.722;-1.944;2023-07-20T10:04:27;4;4;
81640;PMS5003;71053;50.722;-1.944;2023-07-20T10:06:52;3;3;
81640;PMS5003;71053;50.722;-1.944;2023-07-20T10:09:17;4;4;
81640;PMS5003;71053;50.722;-1.944;2023-07-20T10:11:45;2;2;
81640;PMS5003;71053;50.722;-1.944;2023-07-20T10:14:08;4;4;
81640;PMS5003;71053;50.722;-1.944;2023-07-20T10:16:34;3;3;
81640;PMS5003;71053;50.722;-1.944;2023-07-20T10:19:01;4;4;
81640;PMS5003;71053;50.722;-1.944;2023-07-20T10:21:23;2;2;
81640;PMS5003;71053;50.722;-1.944;2023-07-20T10:23:48;2;2;
81640;PMS5003;71053;50.722;-1.944;2023-07-20T10:26:13;3;2;
81640;PMS5003;71053;50.722;-1.944;2023-07-20T10:28:38;4;4;
81640;PMS5003;71053;50.722;-1.944;2023-07-20T10:31:03;4;4;
81640;PMS5003;71053;50.722;-1.944;2023-07-20T10:33:28;5;5;
81640;PMS5003;71053;50.722;-1.944;2023-07-20T10:35:54;4;4;
81640;PMS5003;71053;50.722;-1.944;2023-07-20T10:38:18;1;1;
81640;PMS5003;71053;50.722;-1.944;2023-07-20T10:40:44;2;2;
81640;PMS5003;71053;50.722;-1.944;2023-07-20T10:43:09;3;3;
81640;PMS5003;71053;50.722;-1.944;2023-07-20T10:45:34;4;4;
81640;PMS5003;71053;50.722;-1.944;2023-07-20T10:47:59;4;4;
81640;PMS5003;71053;50.722;-1.944;2023-07-20T10:50:24;4;4;
81640;PMS5003;71053;50.722;-1.944;2023-07-20T10:55:14;2;2;
81640;PMS5003;71053;50.722;-1.944;2023-07-20T10:57:39;4;4;
81640;PMS5003;71053;50.722;-1.944;2023-07-20T11:00:08;2;2;
81640;PMS5003;71053;50.722;-1.944;2023-07-20T11:02:29;2;2;
81640;PMS5003;71053;50.722;-1.944;2023-07-20T11:04:54;2;2;
81640;PMS5003;71053;50.722;-1.944;2023-07-20T11:09:44;3;3;
81640;PMS5003;71053;50.722;-1.944;2023-07-20T11:12:09;3;3;
81640;PMS5003;71053;50.722;-1.944;2023-07-20T11:14:34;3;3;
81640;PMS5003;71053;50.722;-1.944;2023-07-20T11:17:10;4;4;
81640;PMS5003;71053;50.722;-1.944;2023-07-20T11:19:24;3;3;
81640;PMS5003;71053;50.722;-1.944;2023-07-20T11:21:50;4;4;
81640;PMS5003;71053;50.722;-1.944;2023-07-20T11:24:14;3;3;
81640;PMS5003;71053;50.722;-1.944;2023-07-20T11:26:40;3;3;
81640;PMS5003;71053;50.722;-1.944;2023-07-20T11:29:04;4;4;
81640;PMS5003;71053;50.722;-1.944;2023-07-20T11:31:29;3;2;
81640;PMS5003;71053;50.722;-1.944;2023-07-20T11:33:54;3;3;
81640;PMS5003;71053;50.722;-1.944;2023-07-20T11:36:20;3;3;
81640;PMS5003;71053;50.722;-1.944;2023-07-20T11:38:45;5;5;
81640;PMS5003;71053;50.722;-1.944;2023-07-20T11:41:10;5;5;
81640;PMS5003;71053;50.722;-1.944;2023-07-20T11:43:35;3;3;
81640;PMS5003;71053;50.722;-1.944;2023-07-20T11:46:00;3;3;
81640;PMS5003;71053;50.722;-1.944;2023-07-20T11:48:25;3;3;
81640;PMS5003;71053;50.722;-1.944;2023-07-20T11:50:50;3;3;
81640;PMS5003;71053;50.722;-1.944;2023-07-20T11:53:15;3;3;
81640;PMS5003;71053;50.722;-1.944;2023-07-20T11:55:40;2;2;
81640;PMS5003;71053;50.722;-1.944;2023-07-20T11:58:05;3;3;
81640;PMS5003;71053;50.722;-1.944;2023-07-20T12:00:30;4;4;
81640;PMS5003;71053;50.722;-1.944;2023-07-20T12:02:55;3;3;
81640;PMS5003;71053;50.722;-1.944;2023-07-20T12:05:22;3;3;
81640;PMS5003;71053;50.722;-1.944;2023-07-20T12:07:45;4;4;
81640;PMS5003;71053;50.722;-1.944;2023-07-20T12:10:11;3;3;
81640;PMS5003;71053;50.722;-1.944;2023-07-20T12:12:37;3;3;
81640;PMS5003;71053;50.722;-1.944;2023-07-20T12:17:25;3;3;
81640;PMS5003;71053;50.722;-1.944;2023-07-20T12:19:50;4;4;
81640;PMS5003;71053;50.722;-1.944;2023-07-20T12:22:15;5;5;
81640;PMS5003;71053;50.722;-1.944;2023-07-20T12:24:40;3;3;
81640;PMS5003;71053;50.722;-1.944;2023-07-20T12:27:06;3;3;
81640;PMS5003;71053;50.722;-1.944;2023-07-20T12:29:30;4;4;
81640;PMS5003;71053;50.722;-1.944;2023-07-20T12:31:56;2;2;
81640;PMS5003;71053;50.722;-1.944;2023-07-20T12:34:21;3;3;
81640;PMS5003;71053;50.722;-1.944;2023-07-20T12:36:46;3;3;
81640;PMS5003;71053;50.722;-1.944;2023-07-20T12:39:11;2;2;
81640;PMS5003;71053;50.722;-1.944;2023-07-20T12:41:36;4;4;
81640;PMS5003;71053;50.722;-1.944;2023-07-20T12:44:01;3;3;
81640;PMS5003;71053;50.722;-1.944;2023-07-20T12:46:26;1;1;
81640;PMS5003;71053;50.722;-1.944;2023-07-20T12:48:51;3;3;
81640;PMS5003;71053;50.722;-1.944;2023-07-20T12:51:16;4;3;
81640;PMS5003;71053;50.722;-1.944;2023-07-20T12:53:41;4;4;
81640;PMS5003;71053;50.722;-1.944;2023-07-20T12:56:06;3;3;
81640;PMS5003;71053;50.722;-1.944;2023-07-20T12:58:31;3;3;
81640;PMS5003;71053;50.722;-1.944;2023-07-20T13:00:56;3;3;
81640;PMS5003;71053;50.722;-1.944;2023-07-20T13:03:21;4;3;
81640;PMS5003;71053;50.722;-1.944;2023-07-20T13:05:46;3;3;
81640;PMS5003;71053;50.722;-1.944;2023-07-20T13:08:11;3;3;
81640;PMS5003;71053;50.722;-1.944;2023-07-20T13:10:36;4;3;
81640;PMS5003;71053;50.722;-1.944;2023-07-20T13:13:01;3;3;
81640;PMS5003;71053;50.722;-1.944;2023-07-20T13:15:29;3;3;
81640;PMS5003;71053;50.722;-1.944;2023-07-20T13:17:51;4;4;
81640;PMS5003;71053;50.722;-1.944;2023-07-20T13:20:16;3;2;
81640;PMS5003;71053;50.722;-1.944;2023-07-20T13:22:41;3;3;
81640;PMS5003;71053;50.722;-1.944;2023-07-20T13:25:07;3;3;
81640;PMS5003;71053;50.722;-1.944;2023-07-20T13:27:32;3;3;
81640;PMS5003;71053;50.722;-1.944;2023-07-20T13:29:58;2;2;
81640;PMS5003;71053;50.722;-1.944;2023-07-20T13:32:24;2;2;
81640;PMS5003;71053;50.722;-1.944;2023-07-20T13:34:50;2;2;
81640;PMS5003;71053;50.722;-1.944;2023-07-20T13:37:16;3;3;
81640;PMS5003;71053;50.722;-1.944;2023-07-20T13:39:42;2;2;
81640;PMS5003;71053;50.722;-1.944;2023-07-20T13:42:07;1;1;
81640;PMS5003;71053;50.722;-1.944;2023-07-20T13:44:33;3;3;
81640;PMS5003;71053;50.722;-1.944;2023-07-20T13:46:59;3;3;
81640;PMS5003;71053;50.722;-1.944;2023-07-20T13:49:25;3;3;
81640;PMS5003;71053;50.722;-1.944;2023-07-20T13:51:51;2;2;
81640;PMS5003;71053;50.722;-1.944;2023-07-20T13:54:17;3;3;
81640;PMS5003;71053;50.722;-1.944;2023-07-20T13:56:42;2;2;
81640;PMS5003;71053;50.722;-1.944;2023-07-20T13:59:09;3;3;
81640;PMS5003;71053;50.722;-1.944;2023-07-20T14:01:34;3;3;
81640;PMS5003;71053;50.722;-1.944;2023-07-20T14:04:00;3;3;
81640;PMS5003;71053;50.722;-1.944;2023-07-20T14:06:27;3;3;
81640;PMS5003;71053;50.722;-1.944;2023-07-20T14:08:52;3;3;
81640;PMS5003;71053;50.722;-1.944;2023-07-20T14:11:17;4;4;
81640;PMS5003;71053;50.722;-1.944;2023-07-20T14:13:43;2;2;
81640;PMS5003;71053;50.722;-1.944;2023-07-20T14:16:09;4;4;
81640;PMS5003;71053;50.722;-1.944;2023-07-20T14:18:35;2;2;
81640;PMS5003;71053;50.722;-1.944;2023-07-20T14:21:01;2;2;
81640;PMS5003;71053;50.722;-1.944;2023-07-20T14:23:27;3;3;
81640;PMS5003;71053;50.722;-1.944;2023-07-20T14:25:52;3;3;
81640;PMS5003;71053;50.722;-1.944;2023-07-20T14:28:18;3;2;
81640;PMS5003;71053;50.722;-1.944;2023-07-20T14:30:44;2;2;
81640;PMS5003;71053;50.722;-1.944;2023-07-20T14:33:10;3;2;
81640;PMS5003;71053;50.722;-1.944;2023-07-20T14:35:36;2;2;
81640;PMS5003;71053;50.722;-1.944;2023-07-20T14:38:02;2;2;
81640;PMS5003;71053;50.722;-1.944;2023-07-20T14:40:27;2;2;
81640;PMS5003;71053;50.722;-1.944;2023-07-20T14:42:53;3;3;
81640;PMS5003;71053;50.722;-1.944;2023-07-20T14:45:19;2;2;
81640;PMS5003;71053;50.722;-1.944;2023-07-20T14:47:45;2;1;
81640;PMS5003;71053;50.722;-1.944;2023-07-20T14:50:09;4;3;
81640;PMS5003;71053;50.722;-1.944;2023-07-20T14:52:34;2;2;
81640;PMS5003;71053;50.722;-1.944;2023-07-20T14:54:59;4;4;
81640;PMS5003;71053;50.722;-1.944;2023-07-20T14:57:25;2;2;
81640;PMS5003;71053;50.722;-1.944;2023-07-20T14:59:50;3;3;
81640;PMS5003;71053;50.722;-1.944;2023-07-20T15:02:15;5;4;
81640;PMS5003;71053;50.722;-1.944;2023-07-20T15:04:45;2;2;
81640;PMS5003;71053;50.722;-1.944;2023-07-20T15:07:05;3;3;
81640;PMS5003;71053;50.722;-1.944;2023-07-20T15:09:30;3;3;
81640;PMS5003;71053;50.722;-1.944;2023-07-20T15:11:55;3;3;
81640;PMS5003;71053;50.722;-1.944;2023-07-20T15:14:20;3;3;
81640;PMS5003;71053;50.722;-1.944;2023-07-20T15:16:45;4;4;
81640;PMS5003;71053;50.722;-1.944;2023-07-20T15:19:10;3;3;
81640;PMS5003;71053;50.722;-1.944;2023-07-20T15:21:35;3;3;
81640;PMS5003;71053;50.722;-1.944;2023-07-20T15:24:00;4;4;
81640;PMS5003;71053;50.722;-1.944;2023-07-20T15:26:25;3;3;
81640;PMS5003;71053;50.722;-1.944;2023-07-20T15:28:50;3;3;
81640;PMS5003;71053;50.722;-1.944;2023-07-20T15:31:15;3;3;
81640;PMS5003;71053;50.722;-1.944;2023-07-20T15:33:40;2;2;
81640;PMS5003;71053;50.722;-1.944;2023-07-20T15:36:06;6;6;
81640;PMS5003;71053;50.722;-1.944;2023-07-20T15:38:31;4;4;
81640;PMS5003;71053;50.722;-1.944;2023-07-20T15:40:56;5;5;
81640;PMS5003;71053;50.722;-1.944;2023-07-20T15:43:21;7;7;
81640;PMS5003;71053;50.722;-1.944;2023-07-20T15:45:47;4;4;
81640;PMS5003;71053;50.722;-1.944;2023-07-20T15:48:11;4;4;
81640;PMS5003;71053;50.722;-1.944;2023-07-20T15:50:36;4;4;
81640;PMS5003;71053;50.722;-1.944;2023-07-20T15:53:01;4;4;
81640;PMS5003;71053;50.722;-1.944;2023-07-20T15:55:26;4;4;
81640;PMS5003;71053;50.722;-1.944;2023-07-20T15:57:51;4;4;
81640;PMS5003;71053;50.722;-1.944;2023-07-20T16:00:17;5;5;
81640;PMS5003;71053;50.722;-1.944;2023-07-20T16:02:41;5;4;
81640;PMS5003;71053;50.722;-1.944;2023-07-20T16:05:07;4;4;
81640;PMS5003;71053;50.722;-1.944;2023-07-20T16:07:32;5;5;
81640;PMS5003;71053;50.722;-1.944;2023-07-20T16:09:57;5;5;
81640;PMS5003;71053;50.722;-1.944;2023-07-20T16:12:22;2;2;
81640;PMS5003;71053;50.722;-1.944;2023-07-20T16:14:48;5;5;
81640;PMS5003;71053;50.722;-1.944;2023-07-20T16:17:13;4;4;
81640;PMS5003;71053;50.722;-1.944;2023-07-20T16:19:37;4;4;
81640;PMS5003;71053;50.722;-1.944;2023-07-20T16:22:03;3;3;
81640;PMS5003;71053;50.722;-1.944;2023-07-20T16:24:27;3;3;